createdAt,value
2022-09-17T00:02:03.223Z,24.90
2022-09-17T00:07:05.293Z,24.60
2022-09-17T00:12:07.237Z,23.50
2022-09-17T00:17:08.977Z,24.00
2022-09-17T00:22:30.445Z,24.60
2022-09-17T00:27:34.219Z,22.60
2022-09-17T00:32:35.968Z,22.70
2022-09-17T00:37:37.852Z,24.40
2022-09-17T00:42:39.616Z,26.40
2022-09-17T00:47:58.689Z,65.90
2022-09-17T00:53:20.763Z,34.90
2022-09-17T00:58:23.475Z,25.30
2022-09-17T01:03:37.631Z,24.50
2022-09-17T01:09:08.470Z,19.10
2022-09-17T01:14:57.336Z,17.90
2022-09-17T01:20:23.092Z,25.00
2022-09-17T01:25:38.293Z,21.30
2022-09-17T01:30:51.979Z,17.90
2022-09-17T01:36:17.878Z,21.20
2022-09-17T01:41:38.633Z,32.10
2022-09-17T01:46:46.650Z,22.60
2022-09-17T01:51:53.150Z,19.40
2022-09-17T01:57:02.112Z,20.10
2022-09-17T02:02:32.805Z,20.00
2022-09-17T02:07:42.391Z,28.70
2022-09-17T02:12:50.006Z,22.70
2022-09-17T02:17:58.918Z,25.60
2022-09-17T02:23:08.651Z,19.20
2022-09-17T02:28:41.587Z,18.80
2022-09-17T02:33:55.935Z,22.30
2022-09-17T02:39:01.827Z,22.30
2022-09-17T02:44:18.630Z,17.70
2022-09-17T02:50:00.346Z,21.60
2022-09-17T02:55:43.205Z,21.10
2022-09-17T03:00:46.506Z,23.90
2022-09-17T03:05:49.520Z,25.00
2022-09-17T03:10:51.395Z,24.50
2022-09-17T03:16:06.585Z,23.40
2022-09-17T03:21:12.665Z,25.40
2022-09-17T03:26:14.596Z,19.70
2022-09-17T03:31:16.469Z,23.60
2022-09-17T03:36:19.574Z,36.40
2022-09-17T03:41:21.603Z,29.00
2022-09-17T03:46:23.386Z,34.20
2022-09-17T03:51:25.560Z,30.20
2022-09-17T03:56:27.333Z,25.20
2022-09-17T04:01:29.377Z,22.80
2022-09-17T04:06:31.583Z,28.10
2022-09-17T04:11:33.565Z,28.10
2022-09-17T04:16:35.613Z,23.60
2022-09-17T04:21:37.461Z,26.30
2022-09-17T04:26:39.272Z,24.10
2022-09-17T04:31:41.166Z,24.40
2022-09-17T04:36:42.918Z,26.80
2022-09-17T04:41:44.641Z,22.60
2022-09-17T04:46:46.477Z,29.40
2022-09-17T04:51:48.381Z,26.80
2022-09-17T04:56:50.528Z,25.20
2022-09-17T05:01:52.350Z,24.80
2022-09-17T05:06:54.170Z,24.60
2022-09-17T05:12:12.048Z,21.70
2022-09-17T05:22:21.432Z,24.70
2022-09-17T05:27:23.510Z,21.70
2022-09-17T05:32:25.536Z,20.90
2022-09-17T05:37:27.237Z,24.40
2022-09-17T05:42:29.475Z,24.60
2022-09-17T05:47:31.224Z,24.10
2022-09-17T05:52:33.247Z,21.10
2022-09-17T05:57:35.023Z,23.60
2022-09-17T06:02:37.231Z,21.00
2022-09-17T06:07:39.254Z,24.20
2022-09-17T06:12:40.914Z,23.60
2022-09-17T06:17:43.551Z,21.80
2022-09-17T06:22:45.593Z,20.70
2022-09-17T06:27:47.417Z,20.90
2022-09-17T06:32:49.878Z,23.80
2022-09-17T06:38:11.448Z,14.40
2022-09-17T06:43:21.829Z,15.70
2022-09-17T06:48:24.715Z,14.50
2022-09-17T06:53:26.418Z,16.60
2022-09-17T06:58:30.025Z,20.20
2022-09-17T07:03:35.889Z,9.40
2022-09-17T07:08:38.476Z,12.20
2022-09-17T07:13:40.352Z,12.60
2022-09-17T07:18:42.235Z,9.40
2022-09-17T07:23:44.781Z,7.80
2022-09-17T07:29:06.429Z,8.30
2022-09-17T07:34:22.146Z,8.60
2022-09-17T07:39:23.842Z,7.00
2022-09-17T07:44:30.266Z,7.90
2022-09-17T07:49:32.304Z,4.30
2022-09-17T07:54:34.573Z,7.20
2022-09-17T07:59:36.667Z,4.90
2022-09-17T08:04:38.552Z,6.70
2022-09-17T08:09:59.272Z,5.70
2022-09-17T08:15:01.612Z,4.70
2022-09-17T08:20:03.617Z,5.30
2022-09-17T08:25:06.750Z,11.20
2022-09-17T08:30:09.339Z,5.20
2022-09-17T08:35:11.961Z,4.60
2022-09-17T08:40:21.321Z,6.80
2022-09-17T08:45:34.888Z,2.90
2022-09-17T08:50:42.067Z,4.60
2022-09-17T08:56:00.912Z,4.00
2022-09-17T09:01:23.961Z,3.80
2022-09-17T09:06:32.926Z,4.40
2022-09-17T09:11:41.569Z,7.40
2022-09-17T09:16:56.722Z,7.30
2022-09-17T09:22:26.120Z,6.90
2022-09-17T09:27:29.455Z,5.10
2022-09-17T09:32:40.383Z,5.60
2022-09-17T09:38:14.100Z,6.40
2022-09-17T09:44:03.683Z,5.70
2022-09-17T09:49:50.227Z,4.00
2022-09-17T09:55:01.080Z,2.90
2022-09-17T10:00:38.861Z,3.80
2022-09-17T10:05:59.217Z,6.90
2022-09-17T10:11:16.968Z,5.70
2022-09-17T10:16:21.744Z,7.60
2022-09-17T10:21:32.565Z,6.10
2022-09-17T10:26:37.110Z,9.00
2022-09-17T10:31:55.021Z,5.60
2022-09-17T10:36:58.564Z,9.10
2022-09-17T10:42:22.120Z,7.90
2022-09-17T10:47:30.533Z,7.50
2022-09-17T10:52:34.475Z,5.70
2022-09-17T10:58:10.344Z,7.00
2022-09-17T11:03:43.770Z,7.30
2022-09-17T11:09:16.231Z,5.90
2022-09-17T11:14:49.530Z,7.30
2022-09-17T11:20:39.965Z,4.30
2022-09-17T11:25:57.150Z,5.80
2022-09-17T11:31:39.844Z,6.60
2022-09-17T11:37:00.379Z,7.90
2022-09-17T11:42:07.857Z,8.90
2022-09-17T11:47:17.400Z,16.20
2022-09-17T11:52:25.788Z,6.20
2022-09-17T11:57:35.341Z,10.60
2022-09-17T12:03:06.876Z,13.30
2022-09-17T12:08:24.074Z,11.40
2022-09-17T12:13:51.106Z,8.20
2022-09-17T12:19:01.103Z,5.80
2022-09-17T12:24:28.672Z,6.50
2022-09-17T12:29:45.784Z,10.90
2022-09-17T12:35:15.073Z,7.90
2022-09-17T12:40:36.123Z,6.10
2022-09-17T12:45:50.442Z,6.00
2022-09-17T12:51:27.800Z,7.30
2022-09-17T12:56:51.111Z,7.00
2022-09-17T13:02:05.326Z,6.40
2022-09-17T13:07:26.234Z,8.00
2022-09-17T13:12:33.710Z,9.90
2022-09-17T13:18:31.396Z,11.70
2022-09-17T13:23:43.913Z,8.90
2022-09-17T13:28:52.514Z,9.60
2022-09-17T13:33:57.495Z,10.40
2022-09-17T13:39:01.712Z,6.60
2022-09-17T13:44:06.178Z,22.50
2022-09-17T13:49:16.939Z,4.70
2022-09-17T13:54:21.311Z,14.30
2022-09-17T13:59:27.930Z,4.70
2022-09-17T14:04:41.845Z,8.50
2022-09-17T14:09:50.339Z,5.70
2022-09-17T14:14:52.743Z,4.80
2022-09-17T14:19:55.521Z,6.10
2022-09-17T14:24:58.423Z,6.10
2022-09-17T14:30:12.934Z,5.80
2022-09-17T14:35:20.611Z,9.40
2022-09-17T14:40:59.423Z,7.70
2022-09-17T14:46:07.063Z,10.60
2022-09-17T14:51:42.426Z,6.50
2022-09-17T14:57:09.798Z,10.10
2022-09-17T15:02:33.282Z,9.20
2022-09-17T15:07:35.373Z,10.40
2022-09-17T15:12:38.967Z,12.00
2022-09-17T15:17:42.382Z,10.00
2022-09-17T15:22:50.099Z,10.20
2022-09-17T15:27:57.114Z,6.30
2022-09-17T15:33:00.167Z,8.40
2022-09-17T15:38:23.676Z,12.80
2022-09-17T15:43:31.621Z,13.00
2022-09-17T15:48:37.108Z,13.70
2022-09-17T15:53:39.019Z,11.20
2022-09-17T15:58:40.757Z,8.80
2022-09-17T16:03:45.651Z,12.30
2022-09-17T16:08:56.086Z,14.40
2022-09-17T16:14:00.336Z,10.10
2022-09-17T16:19:03.678Z,14.00
2022-09-17T16:24:25.396Z,15.70
2022-09-17T16:29:31.308Z,15.90
2022-09-17T16:34:33.429Z,13.80
2022-09-17T16:39:35.278Z,14.10
2022-09-17T16:44:37.224Z,18.10
2022-09-17T16:49:39.062Z,18.90
2022-09-17T16:54:40.961Z,15.50
2022-09-17T16:59:42.658Z,19.40
2022-09-17T17:04:44.398Z,17.70
2022-09-17T17:09:46.428Z,19.80
2022-09-17T17:14:50.165Z,21.10
2022-09-17T17:19:53.076Z,22.50
2022-09-17T17:24:55.285Z,42.70
2022-09-17T17:29:57.008Z,19.30
2022-09-17T17:34:58.848Z,18.70
2022-09-17T17:40:01.901Z,20.00
2022-09-17T17:45:05.985Z,18.80
2022-09-17T17:50:16.059Z,8.60
2022-09-17T17:55:17.957Z,9.70
2022-09-17T18:00:40.415Z,9.10
2022-09-17T18:05:58.991Z,16.70
2022-09-17T18:11:04.187Z,13.30
2022-09-17T18:16:12.110Z,15.50
2022-09-17T18:21:21.972Z,19.40
2022-09-17T18:26:28.011Z,19.10
2022-09-17T18:31:32.000Z,20.90
2022-09-17T18:36:36.409Z,19.60
2022-09-17T18:41:40.744Z,14.90
2022-09-17T18:46:43.088Z,17.40
2022-09-17T18:51:44.954Z,17.50
2022-09-17T18:56:46.733Z,16.70
2022-09-17T19:01:49.497Z,16.00
2022-09-17T19:07:11.533Z,20.60
2022-09-17T19:12:23.856Z,17.00
2022-09-17T19:17:26.294Z,15.00
2022-09-17T19:22:42.430Z,15.30
2022-09-17T19:27:54.155Z,16.70
2022-09-17T19:32:56.025Z,13.40
2022-09-17T19:37:58.945Z,16.30
2022-09-17T19:43:03.381Z,11.00
2022-09-17T19:48:05.117Z,7.70
2022-09-17T19:53:06.844Z,11.90
2022-09-17T19:58:08.633Z,7.40
2022-09-17T20:03:10.933Z,7.30
2022-09-17T20:08:12.698Z,9.50
2022-09-17T20:13:17.341Z,9.50
2022-09-17T20:18:23.289Z,7.60
2022-09-17T20:23:31.078Z,8.00
2022-09-17T20:28:37.588Z,7.30
2022-09-17T20:33:40.110Z,8.20
2022-09-17T20:39:11.491Z,2.90
2022-09-17T20:44:06.630Z,9.20
2022-09-17T20:49:08.634Z,8.70
2022-09-17T20:54:10.672Z,6.20
2022-09-17T20:59:21.384Z,8.20
2022-09-17T21:04:24.217Z,5.80
2022-09-17T21:09:26.076Z,16.60
2022-09-17T21:14:27.965Z,7.50
2022-09-17T21:19:29.856Z,12.20
2022-09-17T21:24:31.632Z,8.00
2022-09-17T21:29:33.552Z,12.80
2022-09-17T21:34:35.277Z,14.20
2022-09-17T21:39:37.334Z,10.60
2022-09-17T21:44:39.482Z,15.20
2022-09-17T21:50:01.390Z,17.10
2022-09-17T21:55:16.718Z,23.50
2022-09-17T22:00:23.189Z,22.20
2022-09-17T22:05:25.419Z,27.20
2022-09-17T22:10:28.520Z,19.20
2022-09-17T22:15:30.407Z,23.30
2022-09-17T22:20:44.927Z,22.60
2022-09-17T22:25:49.295Z,22.00
2022-09-17T22:30:54.112Z,23.80
2022-09-17T22:36:08.521Z,22.90
2022-09-17T22:41:16.018Z,22.10
2022-09-17T22:51:24.301Z,17.90
2022-09-17T22:56:28.134Z,18.60
2022-09-17T23:01:33.870Z,19.10
2022-09-17T23:06:38.340Z,21.10
2022-09-17T23:11:48.883Z,23.10
2022-09-17T23:17:14.369Z,16.80
2022-09-17T23:22:23.296Z,15.10
2022-09-17T23:27:25.132Z,17.70
2022-09-17T23:32:27.054Z,17.50
2022-09-17T23:37:28.791Z,14.00
2022-09-17T23:42:35.802Z,15.20
2022-09-17T23:47:37.469Z,18.10
2022-09-17T23:52:39.357Z,16.30
2022-09-17T23:57:41.211Z,13.90
